Hlavní strana
METAR-TAF:

METAR-TAF

Letiště :

Cognac, Francie

zeměpisná šířka: 45-40N, zeměpisná délka: 000-19W, výška: 30 m

Aktuální stav počasí

Zpráva byla vytvořena před 30 minutami, v 22:30 UTC
Východní vítr 7 kt
Teplota 12°C
Vlhkost vzduchu 50%
Tlak 1015 hPa
Viditelnost 10 km a více
Žádná oblačnost pod 1500 m, nevyskytují se cumulonimby.

METAR: LFBG 042230Z AUTO 08007KT CAVOK 12/02 Q1015

Čas: 01:00 (23:00 UTC)

Předpověď počasí

Zpráva byla vytvořena před 39 hodinami a 0 minutami, v 08:00 UTC
Předpověď platná od 03 v 09 UTC do 04 v 09 UTC
vítr z různých směrů 3 kt
Viditelnost 10 km a více
Žádná oblačnost pod 1500 m, nevyskytují se cumulonimby.

TAF: LFBG 030800Z 0309/0409 VRB03KT CAVOK

Stav a předpovědi počasí z více než 4 000 letišť (zprávy METAR a TAF).

Červené a žluté tečky na mapě představují dostupné meteorologické stanice.

Když kurzor umístíte na tečku, zobrazí se název stanice.

Pak kliknutím zobrazíte stav a předpověď počasí.

Chcete-li změnit mapu, kliknutím na zelené tlačítko se znaménkem +mapu přiblížíte, kliknutím na zelené tlačítko se znaménkem – mapu oddálíte a kliknutím na zelené šipky přejdete na sousední mapy.


METAR-TAF: